EBLG/LGG METAR and TAF weather

Enter ICAO airport designator
Station Type Date Time Source
EBLG METAR 2021/05/13 06:20 UTC NOAA

EBLG 130620Z 15006KT 130V190 CAVOK 11/05 Q1007 NOSIG


Station Type Date Time Source
EBLG Decoded METAR 2021/05/13 06:20 UTC NOAA

Bierset, Belgium (EBLG) 50-39N 005-27E 178M
May 13, 2021 - 02:20 AM EDT / 2021.05.13 0620 UTC
Wind: from the SSE (150 degrees) at 7 MPH (6 KT) (direction variable):0
Visibility: greater than 7 mile(s):0
Temperature: 51 F (11 C)
Dew Point: 41 F (5 C)
Relative Humidity: 66%
Pressure (altimeter): 29.74 in. Hg (1007 hPa)
ob: EBLG 130620Z 15006KT 130V190 CAVOK 11/05 Q1007 NOSIG
cycle: 6

Station Type Date Time Source
EBLG TAF 2021/05/13 06:27 UTC NOAA

TAF EBLG 130508Z 1306/1412 14004KT 9999 SCT040
TEMPO 1310/1314 17012KT 4000 SHRA
BECMG 1310/1312 23012KT PROB30
TEMPO 1311/1315 2800 TSRA
BECMG 1317/1319 VRB03KT

Example: see airport list